Time;durP1;ratioP1;P1;durP2;ratioP2;P2;SDS_P1;SDS_P2;PMS_P1;PMS_P2;Temp;Humidity;BMP_temperature;BMP_pressure;BME280_temperature;BME280_humidity;BME280_pressure;Samples;Min_cycle;Max_cycle;Signal;HPM_P1;HPM_P2
2023/02/21 02:14:01;;;;;;;22.83;8.98;;;7.40;99.90;;;;;;4675893;30;20506;-79
2023/02/21 02:16:52;;;;;;;10.48;4.57;;;7.40;99.90;;;;;;4674137;30;20098;-79
2023/02/21 02:19:39;;;;;;;11.93;4.65;;;7.60;99.90;;;;;;4693247;30;20164;-79
2023/02/21 02:22:36;;;;;;;11.57;5.22;;;7.50;99.90;;;;;;4690888;30;20586;-79
2023/02/21 02:25:39;;;;;;;12.68;4.93;;;7.40;99.90;;;;;;4694768;30;20061;-80
2023/02/21 02:28:18;;;;;;;13.63;5.32;;;7.30;99.90;;;;;;4651864;30;20057;-79
2023/02/21 02:31:09;;;;;;;13.25;6.03;;;7.30;99.90;;;;;;4690031;30;20065;-80
2023/02/21 02:34:19;;;;;;;15.48;5.70;;;7.20;99.90;;;;;;4692510;30;20125;-80
2023/02/21 02:36:52;;;;;;;10.10;4.10;;;7.20;99.90;;;;;;4687947;30;20061;-79
2023/02/21 02:39:25;;;;;;;13.90;5.35;;;7.10;99.90;;;;;;4694557;30;20060;-79
2023/02/21 02:42:15;;;;;;;13.52;5.93;;;7.20;99.90;;;;;;4689713;30;22231;-80
2023/02/21 02:45:00;;;;;;;13.82;5.55;;;7.20;99.90;;;;;;4712276;30;20114;-79
2023/02/21 02:47:37;;;;;;;11.00;5.93;;;7.30;99.90;;;;;;4694653;30;20423;-80
2023/02/21 02:50:07;;;;;;;12.48;5.05;;;7.20;99.90;;;;;;4677793;30;20107;-80
2023/02/21 02:52:35;;;;;;;14.10;5.60;;;7.30;99.90;;;;;;4692863;30;20562;-79
2023/02/21 02:55:21;;;;;;;12.73;4.43;;;7.20;99.90;;;;;;4689528;30;20843;-80
2023/02/21 02:57:50;;;;;;;11.05;4.65;;;7.20;99.90;;;;;;4689900;30;20066;-80
2023/02/21 03:00:18;;;;;;;9.25;4.45;;;7.20;99.90;;;;;;4677019;30;20067;-79
2023/02/21 03:03:07;;;;;;;10.15;4.32;;;7.30;99.90;;;;;;4692211;30;20064;-80
2023/02/21 03:06:06;;;;;;;9.60;3.58;;;7.30;99.60;;;;;;4690208;30;20750;-80
2023/02/21 03:09:12;;;;;;;8.93;3.70;;;7.30;99.30;;;;;;4708814;30;20076;-79
2023/02/21 03:11:54;;;;;;;7.75;3.10;;;7.30;99.20;;;;;;4730696;30;20176;-80
2023/02/21 03:14:28;;;;;;;10.10;3.35;;;7.20;99.20;;;;;;4702829;30;20060;-80
2023/02/21 03:17:01;;;;;;;7.13;2.75;;;7.20;99.20;;;;;;4698027;30;20072;-80
2023/02/21 03:19:34;;;;;;;6.68;2.67;;;7.30;98.80;;;;;;4697368;30;20079;-79
2023/02/21 03:22:07;;;;;;;8.90;3.00;;;7.30;98.80;;;;;;4692399;30;20068;-80
2023/02/21 03:24:39;;;;;;;8.23;2.75;;;7.20;98.80;;;;;;4701485;30;20126;-79
2023/02/21 03:27:07;;;;;;;7.47;2.45;;;7.20;99.00;;;;;;4677542;30;22404;-79
2023/02/21 03:29:58;;;;;;;5.03;2.00;;;7.10;99.10;;;;;;4686459;30;20068;-80
2023/02/21 03:32:37;;;;;;;7.20;2.45;;;7.00;99.20;;;;;;4687662;30;20063;-80
2023/02/21 03:35:05;;;;;;;7.90;2.63;;;7.10;99.40;;;;;;4687683;30;20064;-79
2023/02/21 03:37:39;;;;;;;7.15;2.92;;;7.10;99.40;;;;;;4687620;30;20114;-79
2023/02/21 03:40:14;;;;;;;5.70;2.00;;;7.00;99.50;;;;;;4688244;30;22504;-79
2023/02/21 03:42:46;;;;;;;5.63;1.85;;;7.00;99.50;;;;;;4704397;30;20064;-79
2023/02/21 03:45:16;;;;;;;4.63;2.10;;;7.00;99.50;;;;;;4702389;30;20538;-79
2023/02/21 03:47:51;;;;;;;3.42;1.45;;;6.90;99.90;;;;;;4687578;30;20191;-79
2023/02/21 03:50:18;;;;;;;5.60;1.52;;;6.90;99.90;;;;;;4688489;30;20056;-80
2023/02/21 03:52:46;;;;;;;9.32;2.90;;;6.70;99.90;;;;;;4684112;30;20095;-80
2023/02/21 03:55:13;;;;;;;7.50;2.60;;;6.60;99.90;;;;;;4694015;30;20057;-79
2023/02/21 03:57:41;;;;;;;8.00;2.70;;;6.60;99.90;;;;;;4689563;30;20061;-81
2023/02/21 04:00:09;;;;;;;5.15;2.20;;;6.60;99.90;;;;;;4688098;30;20068;-79
2023/02/21 04:02:43;;;;;;;5.78;2.25;;;6.50;99.90;;;;;;4694487;30;20540;-80
2023/02/21 04:05:21;;;;;;;7.55;2.78;;;6.50;99.90;;;;;;4674168;30;20057;-80
2023/02/21 04:07:48;;;;;;;7.65;3.88;;;6.50;99.90;;;;;;4686961;30;20049;-80
2023/02/21 04:10:15;;;;;;;11.00;6.13;;;6.40;99.90;;;;;;4675040;30;22097;-79
2023/02/21 04:12:44;;;;;;;12.68;7.13;;;6.40;99.90;;;;;;4699240;30;20048;-79
2023/02/21 04:15:12;;;;;;;7.80;3.90;;;6.30;99.90;;;;;;4701997;30;20165;-79
2023/02/21 04:17:39;;;;;;;7.32;2.67;;;6.30;99.90;;;;;;4704884;30;20088;-79
2023/02/21 04:20:08;;;;;;;4.90;1.85;;;6.40;99.90;;;;;;4678124;30;20095;-79
2023/02/21 04:22:41;;;;;;;5.25;2.65;;;6.40;99.90;;;;;;4692428;30;20417;-79
2023/02/21 04:25:10;;;;;;;4.50;1.35;;;6.30;99.90;;;;;;4709256;30;20167;-80
2023/02/21 04:27:42;;;;;;;5.88;2.45;;;6.50;99.90;;;;;;4711601;30;22403;-80
2023/02/21 04:30:10;;;;;;;7.03;2.58;;;6.40;99.90;;;;;;4720920;30;20049;-79
2023/02/21 04:32:37;;;;;;;8.02;2.38;;;6.30;99.90;;;;;;4691032;30;20057;-80
2023/02/21 04:35:09;;;;;;;5.90;1.90;;;6.40;99.90;;;;;;4670443;30;20067;-80
2023/02/21 04:37:37;;;;;;;5.55;1.50;;;6.60;99.90;;;;;;4694277;30;20095;-79
2023/02/21 04:40:04;;;;;;;4.07;1.67;;;6.90;99.90;;;;;;4685180;30;20691;-79
2023/02/21 04:42:33;;;;;;;2.47;0.50;;;6.90;99.90;;;;;;4702829;30;20731;-79
2023/02/21 04:45:02;;;;;;;3.72;0.93;;;7.00;99.90;;;;;;4686350;30;20355;-80
2023/02/21 04:47:29;;;;;;;2.50;0.70;;;7.00;99.90;;;;;;4682492;30;20063;-80
2023/02/21 04:49:57;;;;;;;3.85;0.90;;;6.70;99.90;;;;;;4697656;30;20099;-80
2023/02/21 04:52:24;;;;;;;4.80;1.73;;;6.50;99.90;;;;;;4696072;30;20056;-80
2023/02/21 04:54:52;;;;;;;5.25;1.45;;;6.40;99.90;;;;;;4692664;30;20065;-79
2023/02/21 04:57:19;;;;;;;5.43;2.40;;;6.40;99.90;;;;;;4680202;30;20136;-79
2023/02/21 04:59:46;;;;;;;6.63;2.72;;;6.50;99.90;;;;;;4691618;30;20053;-79
2023/02/21 05:02:14;;;;;;;2.83;0.50;;;6.50;99.90;;;;;;4692331;30;20063;-80
2023/02/21 05:04:41;;;;;;;2.60;0.68;;;6.90;99.90;;;;;;4713089;30;20077;-80
2023/02/21 05:07:09;;;;;;;4.00;1.00;;;7.30;99.90;;;;;;4691780;30;20889;-79
2023/02/21 05:09:36;;;;;;;7.90;0.95;;;7.50;99.80;;;;;;4694044;30;20052;-79
2023/02/21 05:12:10;;;;;;;2.13;0.50;;;7.70;98.60;;;;;;4710598;30;20060;-79
2023/02/21 05:14:38;;;;;;;2.42;1.15;;;7.90;97.80;;;;;;4693836;30;20118;-79
2023/02/21 05:17:05;;;;;;;3.10;0.50;;;8.30;96.50;;;;;;4692352;30;22493;-79
2023/02/21 05:19:33;;;;;;;3.38;0.40;;;8.20;96.50;;;;;;4692452;30;20071;-79
2023/02/21 05:22:02;;;;;;;32.83;11.88;;;8.40;95.50;;;;;;4692006;30;20592;-80
2023/02/21 05:24:30;;;;;;;3.10;1.08;;;8.30;96.00;;;;;;4680339;30;20068;-80
2023/02/21 05:26:57;;;;;;;1.40;0.50;;;8.40;95.70;;;;;;4693610;30;20059;-80
2023/02/21 05:29:25;;;;;;;4.70;1.27;;;8.80;94.60;;;;;;4699339;30;20505;-81
2023/02/21 05:31:52;;;;;;;3.05;1.33;;;8.50;94.90;;;;;;4699277;30;20057;-80
2023/02/21 05:34:19;;;;;;;10.05;7.57;;;8.40;95.40;;;;;;4680047;30;20537;-80
2023/02/21 05:36:46;;;;;;;5.38;1.63;;;8.30;95.70;;;;;;4697282;30;20394;-80
2023/02/21 05:39:14;;;;;;;3.63;1.13;;;8.50;95.10;;;;;;4690256;30;20053;-79
2023/02/21 05:41:49;;;;;;;5.22;1.15;;;8.50;94.80;;;;;;4680165;30;20071;-80
2023/02/21 05:44:17;;;;;;;3.85;1.52;;;8.60;94.70;;;;;;4699710;30;20096;-80
2023/02/21 05:46:44;;;;;;;3.65;1.73;;;8.60;94.60;;;;;;4704918;30;20409;-80
2023/02/21 05:49:12;;;;;;;5.15;1.65;;;8.80;94.10;;;;;;4675949;30;20044;-80
2023/02/21 05:51:42;;;;;;;7.22;1.85;;;9.00;93.60;;;;;;4672060;30;20786;-79
2023/02/21 05:54:15;;;;;;;4.35;1.35;;;8.90;93.60;;;;;;4693280;30;20815;-80
2023/02/21 05:56:43;;;;;;;3.80;1.08;;;9.00;93.40;;;;;;4697354;30;20057;-80
2023/02/21 05:59:12;;;;;;;6.63;2.67;;;9.20;92.70;;;;;;4709215;30;20537;-81
2023/02/21 06:01:39;;;;;;;4.75;1.00;;;9.20;92.60;;;;;;4711931;30;20057;-80
2023/02/21 06:04:07;;;;;;;2.63;1.10;;;9.40;92.30;;;;;;4677987;30;20962;-80
2023/02/21 06:06:34;;;;;;;3.78;1.45;;;9.20;92.60;;;;;;4717249;30;20048;-80
2023/02/21 06:09:02;;;;;;;5.22;2.03;;;9.10;92.70;;;;;;4655806;30;20052;-79
2023/02/21 06:11:36;;;;;;;11.63;5.60;;;9.00;93.10;;;;;;4688435;30;20135;-79
2023/02/21 06:14:06;;;;;;;10.80;5.88;;;9.10;93.00;;;;;;4677906;30;20057;-79
2023/02/21 06:16:36;;;;;;;8.02;2.45;;;9.00;93.20;;;;;;4694218;30;20173;-78
2023/02/21 06:19:05;;;;;;;10.25;5.30;;;9.00;93.20;;;;;;4708834;30;20071;-80
2023/02/21 06:21:34;;;;;;;11.73;5.40;;;9.00;93.30;;;;;;4700477;30;20052;-79
2023/02/21 06:24:02;;;;;;;12.38;5.75;;;9.00;93.40;;;;;;4695685;30;20057;-80
2023/02/21 06:26:29;;;;;;;9.73;4.43;;;8.90;93.60;;;;;;4694790;30;20833;-80
2023/02/21 06:28:57;;;;;;;21.27;8.95;;;9.10;93.60;;;;;;4695749;30;20057;-80
2023/02/21 06:31:24;;;;;;;6.90;3.13;;;9.00;93.60;;;;;;4716316;30;20071;-79
2023/02/21 06:33:52;;;;;;;11.27;4.90;;;8.90;93.90;;;;;;4705557;30;20157;-80
2023/02/21 06:36:22;;;;;;;7.55;3.30;;;8.80;93.90;;;;;;4712628;30;20063;-80
2023/02/21 06:38:53;;;;;;;9.18;4.05;;;8.80;94.00;;;;;;4693976;30;20061;-80
2023/02/21 06:41:27;;;;;;;25.25;10.75;;;8.80;94.20;;;;;;4670346;30;20817;-79
2023/02/21 06:43:56;;;;;;;22.58;9.02;;;8.90;93.90;;;;;;4692570;30;20067;-80
2023/02/21 06:46:26;;;;;;;17.52;6.88;;;9.00;93.90;;;;;;4711183;30;20060;-80
2023/02/21 06:48:53;;;;;;;18.20;7.65;;;9.10;93.70;;;;;;4704244;30;20420;-79
2023/02/21 06:51:27;;;;;;;21.75;8.25;;;9.20;93.30;;;;;;4682958;30;22477;-79
2023/02/21 06:53:57;;;;;;;18.17;7.15;;;9.30;93.30;;;;;;4675668;30;20749;-80
2023/02/21 06:56:25;;;;;;;87.13;30.40;;;9.30;93.60;;;;;;4665127;30;22372;-81
2023/02/21 06:58:54;;;;;;;7.07;4.00;;;9.30;93.30;;;;;;4692861;30;20433;-79
2023/02/21 07:01:22;;;;;;;3.58;1.15;;;9.40;93.20;;;;;;4687848;30;20092;-80
2023/02/21 07:03:50;;;;;;;3.42;1.25;;;9.50;92.80;;;;;;4686014;30;22385;-80
2023/02/21 07:06:17;;;;;;;4.57;1.48;;;9.70;92.70;;;;;;4688650;30;20240;-80
2023/02/21 07:08:44;;;;;;;2.53;0.70;;;9.80;92.30;;;;;;4685729;30;20052;-80
2023/02/21 07:11:12;;;;;;;5.50;0.82;;;9.90;92.20;;;;;;4691274;30;20537;-79
2023/02/21 07:13:40;;;;;;;4.15;1.17;;;10.10;91.80;;;;;;4680406;30;20060;-81
2023/02/21 07:16:07;;;;;;;3.47;1.20;;;10.10;92.00;;;;;;4687549;30;20060;-80
2023/02/21 07:18:34;;;;;;;4.78;0.90;;;10.30;91.90;;;;;;4708155;30;20060;-79
2023/02/21 07:21:02;;;;;;;2.92;1.08;;;10.40;91.30;;;;;;4674764;30;20107;-80
2023/02/21 07:23:29;;;;;;;3.00;1.48;;;10.50;91.20;;;;;;4675483;30;20048;-80
2023/02/21 07:25:56;;;;;;;3.10;1.38;;;10.40;91.40;;;;;;4673185;30;20060;-80
2023/02/21 07:28:23;;;;;;;3.33;0.93;;;10.50;91.40;;;;;;4662429;30;21600;-80
2023/02/21 07:30:50;;;;;;;3.97;1.08;;;10.50;91.40;;;;;;4679894;30;20194;-80
2023/02/21 07:33:18;;;;;;;2.97;0.70;;;10.50;91.20;;;;;;4669851;30;20084;-80
2023/02/21 07:35:45;;;;;;;4.00;1.20;;;10.60;91.20;;;;;;4673359;30;20057;-79
2023/02/21 07:38:23;;;;;;;4.65;1.67;;;10.60;91.10;;;;;;4684217;30;20060;-80
2023/02/21 07:40:53;;;;;;;4.07;1.25;;;10.60;90.80;;;;;;4670289;30;20052;-79
2023/02/21 07:43:20;;;;;;;6.72;3.58;;;10.80;90.40;;;;;;4679596;30;20637;-79
2023/02/21 07:45:47;;;;;;;24.50;13.65;;;10.90;90.00;;;;;;4703809;30;20041;-80
2023/02/21 07:48:14;;;;;;;8.63;3.15;;;11.00;89.30;;;;;;4670105;30;22435;-79
2023/02/21 07:50:42;;;;;;;14.00;4.30;;;11.00;89.90;;;;;;4690166;30;20057;-80
2023/02/21 07:53:10;;;;;;;24.17;9.52;;;11.20;88.40;;;;;;4669178;30;20081;-79
2023/02/21 07:55:38;;;;;;;6.88;2.92;;;11.30;87.80;;;;;;4668783;30;20061;-80
2023/02/21 07:58:05;;;;;;;16.17;6.78;;;11.50;86.70;;;;;;4677342;30;20425;-80
2023/02/21 08:00:33;;;;;;;2.55;1.20;;;11.50;87.00;;;;;;4677270;30;20061;-79
2023/02/21 08:03:00;;;;;;;3.05;1.15;;;11.60;85.60;;;;;;4652985;30;20803;-79
2023/02/21 08:05:28;;;;;;;3.65;1.33;;;11.80;84.90;;;;;;4649922;30;20123;-79
2023/02/21 08:07:55;;;;;;;4.88;0.73;;;11.90;84.20;;;;;;4658820;30;20694;-79
2023/02/21 08:10:25;;;;;;;2.40;0.60;;;11.90;84.40;;;;;;4696230;30;20180;-79
2023/02/21 08:12:52;;;;;;;3.50;0.85;;;12.00;83.70;;;;;;4674521;30;22282;-80
2023/02/21 08:15:19;;;;;;;3.70;0.73;;;12.00;83.20;;;;;;4669900;30;20072;-81
2023/02/21 08:17:50;;;;;;;4.65;0.77;;;12.10;83.00;;;;;;4666245;30;20061;-80
2023/02/21 08:20:18;;;;;;;5.63;1.05;;;12.20;83.30;;;;;;4660599;30;20057;-80
2023/02/21 08:22:45;;;;;;;5.13;1.02;;;12.20;82.60;;;;;;4675553;30;20091;-80
2023/02/21 08:25:14;;;;;;;1.65;0.73;;;12.20;82.70;;;;;;4674041;30;20068;-80
2023/02/21 08:27:42;;;;;;;4.78;0.70;;;12.30;82.50;;;;;;4675223;30;20053;-79
2023/02/21 08:30:13;;;;;;;2.67;0.60;;;12.40;82.00;;;;;;4655349;30;23151;-79
2023/02/21 08:32:40;;;;;;;4.88;1.23;;;12.40;82.20;;;;;;4680785;30;20106;-80
2023/02/21 08:35:08;;;;;;;5.55;2.17;;;12.40;82.00;;;;;;4678395;30;20064;-79
2023/02/21 08:37:44;;;;;;;3.03;1.02;;;12.50;82.40;;;;;;4671414;30;20057;-80
2023/02/21 08:40:12;;;;;;;6.80;3.63;;;12.50;81.70;;;;;;4661350;30;21004;-80
2023/02/21 08:42:40;;;;;;;5.60;2.53;;;12.50;82.30;;;;;;4678761;30;20057;-80
2023/02/21 08:45:14;;;;;;;3.17;0.50;;;12.60;81.50;;;;;;4673968;30;20459;-79
2023/02/21 08:47:42;;;;;;;3.97;0.70;;;12.60;81.90;;;;;;4675478;30;20564;-80
2023/02/21 08:50:10;;;;;;;4.53;1.58;;;12.60;81.50;;;;;;4660671;30;20059;-80
2023/02/21 08:52:38;;;;;;;2.95;0.63;;;12.70;81.60;;;;;;4689210;30;20510;-78
2023/02/21 08:55:06;;;;;;;2.63;0.93;;;12.70;81.70;;;;;;4671473;30;20067;-81
2023/02/21 08:57:33;;;;;;;4.80;1.55;;;12.70;81.50;;;;;;4669870;30;20061;-79
2023/02/21 09:00:01;;;;;;;2.08;0.88;;;12.70;82.00;;;;;;4671074;30;20091;-80
2023/02/21 09:02:29;;;;;;;3.10;0.80;;;12.80;81.20;;;;;;4657043;30;22647;-80
2023/02/21 09:04:56;;;;;;;5.05;1.23;;;12.90;81.40;;;;;;4673514;30;20179;-79
2023/02/21 09:07:23;;;;;;;3.00;0.70;;;13.00;81.40;;;;;;4664374;30;20053;-80
2023/02/21 09:09:50;;;;;;;1.60;0.70;;;13.00;81.30;;;;;;4673597;30;20044;-79
2023/02/21 09:12:17;;;;;;;3.05;0.80;;;13.10;80.70;;;;;;4653747;30;20772;-79
2023/02/21 09:14:44;;;;;;;5.68;1.15;;;13.10;80.60;;;;;;4694703;30;20074;-81
2023/02/21 09:17:13;;;;;;;4.53;1.23;;;13.20;81.10;;;;;;4652116;30;20564;-81
2023/02/21 09:19:40;;;;;;;5.93;1.45;;;13.20;80.80;;;;;;4679359;30;20766;-79
2023/02/21 09:22:09;;;;;;;3.65;1.50;;;13.20;80.90;;;;;;4676506;30;22152;-80
2023/02/21 09:24:37;;;;;;;1.92;0.73;;;13.30;81.20;;;;;;4663248;30;20060;-79
2023/02/21 09:27:05;;;;;;;4.13;0.88;;;13.20;80.40;;;;;;4681429;30;20534;-80
2023/02/21 09:29:34;;;;;;;2.05;0.77;;;13.20;80.90;;;;;;4680598;30;20428;-80
2023/02/21 09:32:12;;;;;;;4.30;0.75;;;13.30;81.10;;;;;;4685680;30;22419;-79
2023/02/21 09:34:40;;;;;;;1.98;0.80;;;13.30;80.70;;;;;;4691397;30;20510;-77
2023/02/21 09:37:07;;;;;;;3.10;0.63;;;13.30;80.60;;;;;;4681641;30;20625;-78
2023/02/21 09:39:38;;;;;;;3.85;0.85;;;13.40;80.60;;;;;;4687472;30;20537;-78
2023/02/21 09:42:05;;;;;;;4.63;0.85;;;13.40;80.30;;;;;;4696996;30;20056;-78
2023/02/21 09:44:34;;;;;;;5.07;1.30;;;13.50;80.00;;;;;;4665653;30;20350;-80
2023/02/21 09:47:04;;;;;;;2.05;0.90;;;13.50;80.10;;;;;;4683022;30;20061;-79
2023/02/21 09:49:39;;;;;;;2.25;1.08;;;13.50;79.70;;;;;;4693499;30;20187;-77
2023/02/21 09:52:21;;;;;;;2.20;0.68;;;13.60;80.00;;;;;;4690913;30;20544;-80
2023/02/21 09:54:56;;;;;;;3.33;1.38;;;13.60;79.60;;;;;;4686193;30;20258;-79
2023/02/21 09:57:23;;;;;;;5.78;2.58;;;13.60;79.60;;;;;;4687360;30;20692;-79
2023/02/21 09:59:51;;;;;;;5.00;2.30;;;13.70;79.70;;;;;;4689668;30;20864;-80
2023/02/21 10:02:53;;;;;;;3.90;2.78;;;13.70;79.40;;;;;;4692088;30;20057;-79
2023/02/21 10:05:39;;;;;;;4.43;1.85;;;13.90;79.70;;;;;;4659385;30;20056;-80
2023/02/21 10:08:17;;;;;;;2.42;0.90;;;13.90;79.70;;;;;;4715273;30;20049;-80
2023/02/21 10:10:48;;;;;;;1.90;0.63;;;13.90;79.30;;;;;;4664150;30;20053;-79
2023/02/21 10:13:40;;;;;;;4.03;0.65;;;13.80;79.30;;;;;;4677489;30;20060;-78
2023/02/21 10:16:26;;;;;;;1.88;0.60;;;13.90;79.70;;;;;;4687374;30;20061;-80
2023/02/21 10:19:13;;;;;;;2.08;0.60;;;14.10;80.30;;;;;;4690548;30;20549;-77
2023/02/21 10:21:44;;;;;;;2.17;0.50;;;14.00;79.40;;;;;;4702308;30;20071;-80
2023/02/21 10:24:23;;;;;;;1.50;0.50;;;14.10;79.60;;;;;;4708764;30;20061;-80
2023/02/21 10:26:59;;;;;;;3.90;0.30;;;14.10;79.30;;;;;;4692352;30;20090;-81
2023/02/21 10:29:43;;;;;;;3.47;1.80;;;14.10;79.40;;;;;;4705524;30;20048;-80
2023/02/21 10:32:11;;;;;;;3.67;1.05;;;14.10;79.30;;;;;;4687016;30;20067;-80
2023/02/21 10:34:42;;;;;;;1.52;0.55;;;14.20;79.50;;;;;;4679015;30;20162;-80
2023/02/21 10:37:45;;;;;;;2.10;0.45;;;14.30;79.50;;;;;;4694996;30;20097;-79
2023/02/21 10:40:35;;;;;;;2.22;0.40;;;14.30;78.30;;;;;;4708515;30;22363;-80
2023/02/21 10:43:34;;;;;;;2.13;0.40;;;14.30;79.20;;;;;;4680942;30;20691;-80
2023/02/21 10:46:07;;;;;;;4.97;0.60;;;14.20;79.20;;;;;;4685426;30;20061;-80
2023/02/21 10:48:37;;;;;;;1.65;0.30;;;14.20;79.10;;;;;;4667845;30;20856;-81
2023/02/21 10:51:07;;;;;;;1.80;0.50;;;14.20;79.20;;;;;;4714244;30;20064;-79
2023/02/21 10:53:45;;;;;;;1.73;0.40;;;14.20;79.90;;;;;;4722870;30;20072;-81
2023/02/21 10:56:14;;;;;;;1.75;1.27;;;14.40;79.40;;;;;;4695072;30;20107;-79
2023/02/21 10:58:59;;;;;;;1.83;0.43;;;14.30;79.20;;;;;;4686238;30;20071;-81
2023/02/21 11:01:28;;;;;;;2.05;0.73;;;14.40;78.90;;;;;;4707257;30;20071;-79
2023/02/21 11:03:58;;;;;;;1.48;0.30;;;14.30;78.80;;;;;;4693466;30;20551;-78
2023/02/21 11:06:34;;;;;;;2.05;0.70;;;14.30;79.20;;;;;;4686752;30;21222;-77
2023/02/21 11:09:30;;;;;;;3.70;0.40;;;14.30;79.20;;;;;;4695001;30;20065;-79
2023/02/21 11:12:08;;;;;;;3.40;0.95;;;14.40;79.20;;;;;;4691391;30;23361;-80
2023/02/21 11:14:35;;;;;;;4.50;1.23;;;14.40;79.20;;;;;;4684556;30;20406;-79
2023/02/21 11:17:18;;;;;;;3.88;1.20;;;14.50;79.10;;;;;;4705201;30;20057;-80
2023/02/21 11:19:45;;;;;;;6.80;1.95;;;14.60;79.00;;;;;;4683609;30;20140;-79
2023/02/21 11:22:13;;;;;;;2.33;0.80;;;14.70;78.80;;;;;;4690935;30;20574;-79
2023/02/21 11:25:17;;;;;;;1.77;0.52;;;14.60;78.60;;;;;;4683261;30;20266;-79
2023/02/21 11:27:56;;;;;;;1.48;0.40;;;14.60;78.50;;;;;;4670722;30;22302;-79
2023/02/21 11:30:24;;;;;;;3.33;1.08;;;14.60;78.10;;;;;;4681447;30;20165;-78
2023/02/21 11:32:55;;;;;;;1.30;0.50;;;14.60;78.20;;;;;;4681183;30;20061;-80
2023/02/21 11:35:29;;;;;;;1.90;0.30;;;14.60;78.00;;;;;;4688991;30;20837;-80
2023/02/21 11:38:06;;;;;;;3.30;0.40;;;14.60;77.50;;;;;;4721193;30;20060;-80
2023/02/21 11:40:48;;;;;;;1.08;0.55;;;14.70;78.10;;;;;;4685046;30;20056;-79
2023/02/21 11:43:28;;;;;;;1.00;0.30;;;14.80;77.30;;;;;;4685630;30;20067;-78
2023/02/21 11:46:14;;;;;;;5.72;0.73;;;14.60;77.00;;;;;;4704619;30;20090;-80
2023/02/21 11:49:00;;;;;;;2.25;0.75;;;14.70;77.10;;;;;;4711737;30;20060;-79
2023/02/21 11:51:43;;;;;;;3.42;0.73;;;14.80;76.60;;;;;;4690979;30;20052;-82
2023/02/21 11:54:11;;;;;;;2.77;0.37;;;14.70;76.60;;;;;;4700266;30;20063;-79
2023/02/21 11:56:50;;;;;;;3.72;0.63;;;14.80;77.40;;;;;;4703584;30;20313;-77
2023/02/21 11:59:32;;;;;;;1.50;0.40;;;14.80;77.20;;;;;;4671192;30;20060;-78
2023/02/21 12:02:29;;;;;;;3.17;0.68;;;14.90;77.40;;;;;;4689997;30;20068;-80
2023/02/21 12:05:29;;;;;;;3.15;0.47;;;15.00;77.00;;;;;;4707877;30;22763;-79
2023/02/21 12:08:24;;;;;;;1.73;0.50;;;15.00;76.50;;;;;;4680527;30;20068;-79
2023/02/21 12:10:51;;;;;;;3.53;0.98;;;15.00;76.70;;;;;;4692852;30;20060;-80
2023/02/21 12:13:40;;;;;;;3.20;1.10;;;15.10;77.80;;;;;;4716164;30;20060;-81
2023/02/21 12:16:10;;;;;;;4.72;0.77;;;15.00;78.20;;;;;;4680028;30;20060;-81
2023/02/21 12:18:37;;;;;;;4.60;1.02;;;15.00;77.60;;;;;;4694174;30;22552;-79
2023/02/21 12:21:26;;;;;;;1.92;0.55;;;15.00;77.80;;;;;;4731580;30;20045;-78
2023/02/21 12:24:09;;;;;;;3.28;0.82;;;14.90;77.70;;;;;;4697864;30;20068;-78
2023/02/21 12:26:56;;;;;;;1.95;0.90;;;14.90;77.80;;;;;;4694336;30;20522;-79
2023/02/21 12:29:33;;;;;;;2.65;0.60;;;14.90;78.20;;;;;;4666592;30;20108;-79
2023/02/21 12:32:04;;;;;;;2.88;0.85;;;14.90;78.40;;;;;;4688755;30;20185;-80
2023/02/21 12:34:57;;;;;;;3.95;2.15;;;14.80;77.90;;;;;;4697946;30;20527;-79
2023/02/21 12:37:43;;;;;;;;;;;14.90;78.90;;;;;;4689455;30;20057;-79
2023/02/21 12:40:48;;;;;;;5.10;1.33;;;15.00;78.60;;;;;;4713347;30;20608;-78
2023/02/21 12:43:18;;;;;;;7.50;1.20;;;15.00;80.40;;;;;;4691431;30;20062;-79
2023/02/21 12:46:00;;;;;;;4.55;1.40;;;15.00;80.20;;;;;;4698992;30;20714;-78
2023/02/21 12:48:40;;;;;;;3.03;0.82;;;15.10;79.70;;;;;;4701427;30;20076;-79
2023/02/21 12:51:12;;;;;;;2.67;1.13;;;15.10;79.30;;;;;;4688242;30;20072;-78
2023/02/21 12:53:46;;;;;;;;;;;14.90;79.90;;;;;;4692249;30;20061;-78
2023/02/21 12:56:40;;;;;;;4.32;1.00;;;14.80;79.70;;;;;;4693189;30;20575;-80
2023/02/21 12:59:14;;;;;;;3.10;0.77;;;14.90;79.70;;;;;;4697145;30;20061;-81
2023/02/21 13:02:14;;;;;;;1.30;0.57;;;14.80;80.30;;;;;;4671728;30;20056;-80
2023/02/21 13:04:59;;;;;;;3.33;1.27;;;14.50;80.40;;;;;;4689664;30;20513;-80
2023/02/21 13:07:34;;;;;;;2.38;0.90;;;14.70;79.90;;;;;;4720104;30;20502;-78
2023/02/21 13:10:23;;;;;;;4.68;1.25;;;14.60;80.40;;;;;;4704638;30;20063;-78
2023/02/21 13:13:12;;;;;;;1.40;0.47;;;14.70;80.50;;;;;;4701139;30;20429;-78
2023/02/21 13:15:41;;;;;;;7.53;2.53;;;14.70;80.30;;;;;;4699693;30;20067;-80
2023/02/21 13:18:22;;;;;;;3.28;1.50;;;14.80;80.00;;;;;;4689980;30;20049;-78
2023/02/21 13:20:57;;;;;;;2.03;0.75;;;14.70;79.80;;;;;;4709793;30;22595;-80
2023/02/21 13:23:26;;;;;;;3.33;0.68;;;14.80;80.80;;;;;;4691916;30;20096;-79
2023/02/21 13:26:26;;;;;;;2.13;0.60;;;14.80;79.90;;;;;;4690013;30;20086;-79
2023/02/21 13:28:55;;;;;;;5.72;1.27;;;14.60;80.20;;;;;;4690400;30;20053;-79
2023/02/21 13:31:44;;;;;;;7.70;2.78;;;14.50;80.60;;;;;;4688866;30;20096;-79
2023/02/21 13:34:18;;;;;;;2.60;1.13;;;14.60;81.40;;;;;;4681367;30;20057;-79
2023/02/21 13:36:46;;;;;;;2.33;0.80;;;14.60;80.40;;;;;;4678078;30;20571;-78
2023/02/21 13:39:30;;;;;;;3.05;1.25;;;14.50;80.60;;;;;;4669122;30;20691;-79
2023/02/21 13:42:09;;;;;;;4.13;0.95;;;14.50;81.00;;;;;;4685987;30;20056;-79
2023/02/21 13:44:46;;;;;;;3.83;0.80;;;14.40;81.00;;;;;;4700893;30;20189;-79
2023/02/21 13:47:17;;;;;;;3.85;0.60;;;14.20;80.90;;;;;;4697331;30;20185;-79
2023/02/21 13:49:49;;;;;;;2.25;0.55;;;14.10;81.70;;;;;;4689834;30;20060;-79
2023/02/21 13:52:23;;;;;;;2.78;1.25;;;14.00;81.90;;;;;;4700794;30;20064;-78
2023/02/21 13:55:12;;;;;;;3.10;1.40;;;13.80;82.30;;;;;;4691124;30;20556;-77
2023/02/21 13:58:10;;;;;;;2.63;1.40;;;13.70;83.00;;;;;;4690323;30;20797;-79
2023/02/21 14:00:37;;;;;;;6.50;3.53;;;13.60;83.50;;;;;;4698265;30;22196;-80
2023/02/21 14:03:11;;;;;;;5.45;1.67;;;13.60;83.20;;;;;;4697186;30;20052;-78
2023/02/21 14:05:48;;;;;;;4.55;2.15;;;13.70;83.50;;;;;;4665363;30;20063;-78
2023/02/21 14:08:29;;;;;;;6.10;2.60;;;13.90;83.80;;;;;;4692884;30;20078;-81
2023/02/21 14:11:06;;;;;;;4.90;1.98;;;13.90;83.20;;;;;;4711541;30;20059;-79
2023/02/21 14:13:59;;;;;;;75.82;27.02;;;14.00;83.70;;;;;;4691407;30;20087;-79
2023/02/21 14:16:45;;;;;;;4.25;1.50;;;14.10;83.30;;;;;;4679625;30;22092;-78
2023/02/21 14:19:24;;;;;;;5.22;1.85;;;14.10;83.40;;;;;;4697249;30;20566;-78
2023/02/21 14:22:26;;;;;;;5.38;1.60;;;14.30;82.80;;;;;;4698056;30;20068;-77
2023/02/21 14:25:17;;;;;;;2.78;1.50;;;14.30;82.70;;;;;;4677934;30;20065;-79
2023/02/21 14:27:44;;;;;;;3.92;1.50;;;14.30;81.60;;;;;;4679339;30;20159;-79
2023/02/21 14:30:11;;;;;;;1.90;0.80;;;14.30;82.20;;;;;;4680939;30;20056;-77
2023/02/21 14:32:50;;;;;;;2.78;1.58;;;14.20;81.40;;;;;;4677436;30;20064;-80
2023/02/21 14:35:20;;;;;;;1.95;0.63;;;14.20;81.60;;;;;;4662322;30;20056;-78
2023/02/21 14:37:58;;;;;;;2.25;0.75;;;14.20;81.90;;;;;;4679791;30;20114;-78
2023/02/21 14:40:32;;;;;;;2.58;1.88;;;14.20;81.30;;;;;;4672301;30;20593;-81
2023/02/21 14:43:28;;;;;;;3.42;0.95;;;14.10;81.80;;;;;;4681350;30;21047;-79
2023/02/21 14:46:32;;;;;;;2.83;0.40;;;14.00;82.40;;;;;;4666574;30;20053;-80
2023/02/21 14:49:20;;;;;;;1.48;0.55;;;14.10;82.00;;;;;;4663278;30;20048;-78
2023/02/21 14:51:50;;;;;;;1.52;0.47;;;14.00;81.90;;;;;;4673003;30;20448;-79
2023/02/21 14:54:18;;;;;;;4.15;1.77;;;14.00;82.30;;;;;;4646705;30;20064;-78
2023/02/21 14:56:51;;;;;;;19.25;7.28;;;14.00;82.80;;;;;;4700773;30;20656;-80
2023/02/21 14:59:34;;;;;;;12.05;4.93;;;13.90;82.50;;;;;;4691082;30;20529;-80
2023/02/21 15:02:17;;;;;;;;;;;13.90;82.60;;;;;;4713869;30;20049;-80
2023/02/21 15:05:19;;;;;;;8.75;3.50;;;13.80;83.00;;;;;;4661218;30;20310;-78
2023/02/21 15:07:57;;;;;;;13.88;5.85;;;13.70;83.10;;;;;;4673438;30;20846;-80
2023/02/21 15:10:27;;;;;;;4.20;2.05;;;13.60;83.30;;;;;;4673538;30;20057;-79
2023/02/21 15:12:58;;;;;;;23.77;12.77;;;13.60;83.50;;;;;;4669832;30;20099;-79
2023/02/21 15:15:30;;;;;;;16.77;10.80;;;13.50;83.50;;;;;;4672300;30;20364;-79
2023/02/21 15:18:05;;;;;;;;;;;13.50;83.50;;;;;;4670149;30;20057;-79
2023/02/21 15:20:35;;;;;;;15.02;8.70;;;13.50;83.50;;;;;;4668247;30;19935;-79
2023/02/21 15:23:08;;;;;;;7.60;4.88;;;13.40;83.80;;;;;;4669077;30;20118;-79
2023/02/21 15:25:36;;;;;;;7.85;5.20;;;13.40;84.10;;;;;;4681965;30;20065;-77
2023/02/21 15:28:06;;;;;;;1.60;0.38;;;13.40;83.70;;;;;;4672968;30;20695;-81
2023/02/21 15:30:40;;;;;;;6.78;3.70;;;13.40;83.30;;;;;;4667950;30;20057;-80
2023/02/21 15:33:13;;;;;;;19.38;10.85;;;13.30;83.40;;;;;;4685801;30;20053;-80
2023/02/21 15:35:53;;;;;;;6.43;3.05;;;13.30;83.30;;;;;;4678870;30;20064;-81
2023/02/21 15:38:45;;;;;;;13.15;6.55;;;13.30;83.70;;;;;;4686738;30;20061;-79
2023/02/21 15:41:12;;;;;;;7.32;2.20;;;13.20;83.90;;;;;;4660926;30;20792;-80